sensor_id;sensor_type;location;lat;lon;timestamp;pressure;altitude;pressure_sealevel;temperature
69435;BMP180;56625;54.322;18.582;2023-05-10T00:00:14;101450.40;;;9.00
69435;BMP180;56625;54.322;18.582;2023-05-10T00:03:02;101450.00;;;8.90
69435;BMP180;56625;54.322;18.582;2023-05-10T00:05:32;101444.40;;;8.88
69435;BMP180;56625;54.322;18.582;2023-05-10T00:08:00;101445.60;;;8.80
69435;BMP180;56625;54.322;18.582;2023-05-10T00:10:27;101444.60;;;8.80
69435;BMP180;56625;54.322;18.582;2023-05-10T00:12:55;101439.40;;;8.72
69435;BMP180;56625;54.322;18.582;2023-05-10T00:15:23;101436.00;;;8.70
69435;BMP180;56625;54.322;18.582;2023-05-10T00:17:51;101434.20;;;8.70
69435;BMP180;56625;54.322;18.582;2023-05-10T00:20:19;101439.80;;;8.70
69435;BMP180;56625;54.322;18.582;2023-05-10T00:22:47;101441.40;;;8.60
69435;BMP180;56625;54.322;18.582;2023-05-10T00:25:15;101447.60;;;8.60
69435;BMP180;56625;54.322;18.582;2023-05-10T00:27:43;101446.40;;;8.58
69435;BMP180;56625;54.322;18.582;2023-05-10T00:30:11;101443.00;;;8.50
69435;BMP180;56625;54.322;18.582;2023-05-10T00:32:38;101451.20;;;8.50
69435;BMP180;56625;54.322;18.582;2023-05-10T00:35:07;101448.60;;;8.50
69435;BMP180;56625;54.322;18.582;2023-05-10T00:37:35;101450.00;;;8.40
69435;BMP180;56625;54.322;18.582;2023-05-10T00:40:04;101448.40;;;8.40
69435;BMP180;56625;54.322;18.582;2023-05-10T00:42:33;101447.40;;;8.30
69435;BMP180;56625;54.322;18.582;2023-05-10T00:45:01;101450.80;;;8.24
69435;BMP180;56625;54.322;18.582;2023-05-10T00:47:29;101449.60;;;8.20
69435;BMP180;56625;54.322;18.582;2023-05-10T00:49:57;101451.00;;;8.10
69435;BMP180;56625;54.322;18.582;2023-05-10T00:52:27;101449.20;;;8.06
69435;BMP180;56625;54.322;18.582;2023-05-10T00:54:56;101450.60;;;8.00
69435;BMP180;56625;54.322;18.582;2023-05-10T00:57:24;101448.60;;;7.90
69435;BMP180;56625;54.322;18.582;2023-05-10T00:59:53;101448.20;;;7.90
69435;BMP180;56625;54.322;18.582;2023-05-10T01:02:21;101447.40;;;7.80
69435;BMP180;56625;54.322;18.582;2023-05-10T01:04:49;101448.40;;;7.70
69435;BMP180;56625;54.322;18.582;2023-05-10T01:07:17;101443.60;;;7.64
69435;BMP180;56625;54.322;18.582;2023-05-10T01:09:45;101440.00;;;7.60
69435;BMP180;56625;54.322;18.582;2023-05-10T01:12:14;101436.00;;;7.56
69435;BMP180;56625;54.322;18.582;2023-05-10T01:14:42;101431.00;;;7.50
69435;BMP180;56625;54.322;18.582;2023-05-10T01:17:12;101430.40;;;7.50
69435;BMP180;56625;54.322;18.582;2023-05-10T01:19:41;101435.80;;;7.40
69435;BMP180;56625;54.322;18.582;2023-05-10T01:23:10;101434.60;;;7.40
69435;BMP180;56625;54.322;18.582;2023-05-10T01:26:38;101429.80;;;7.30
69435;BMP180;56625;54.322;18.582;2023-05-10T01:33:18;101430.80;;;7.18
69435;BMP180;56625;54.322;18.582;2023-05-10T01:36:32;101425.20;;;7.10
69435;BMP180;56625;54.322;18.582;2023-05-10T01:39:28;101423.80;;;7.04
69435;BMP180;56625;54.322;18.582;2023-05-10T01:42:10;101428.80;;;6.98
69435;BMP180;56625;54.322;18.582;2023-05-10T01:45:02;101427.00;;;6.80
69435;BMP180;56625;54.322;18.582;2023-05-10T01:47:50;101427.40;;;6.80
69435;BMP180;56625;54.322;18.582;2023-05-10T01:50:29;101430.20;;;6.80
69435;BMP180;56625;54.322;18.582;2023-05-10T01:53:00;101427.00;;;6.80
69435;BMP180;56625;54.322;18.582;2023-05-10T01:55:32;101429.00;;;6.76
69435;BMP180;56625;54.322;18.582;2023-05-10T01:58:10;101430.00;;;6.70
69435;BMP180;56625;54.322;18.582;2023-05-10T02:00:44;101422.40;;;6.70
69435;BMP180;56625;54.322;18.582;2023-05-10T02:03:15;101428.60;;;6.60
69435;BMP180;56625;54.322;18.582;2023-05-10T02:05:46;101424.40;;;6.60
69435;BMP180;56625;54.322;18.582;2023-05-10T02:08:18;101424.40;;;6.50
69435;BMP180;56625;54.322;18.582;2023-05-10T02:10:50;101420.40;;;6.40
69435;BMP180;56625;54.322;18.582;2023-05-10T02:13:19;101417.80;;;6.30
69435;BMP180;56625;54.322;18.582;2023-05-10T02:15:49;101415.20;;;6.30
69435;BMP180;56625;54.322;18.582;2023-05-10T02:18:19;101420.40;;;6.28
69435;BMP180;56625;54.322;18.582;2023-05-10T02:20:47;101418.20;;;6.30
69435;BMP180;56625;54.322;18.582;2023-05-10T02:23:17;101413.40;;;6.30
69435;BMP180;56625;54.322;18.582;2023-05-10T02:25:48;101417.60;;;6.20
69435;BMP180;56625;54.322;18.582;2023-05-10T02:28:18;101412.60;;;6.20
69435;BMP180;56625;54.322;18.582;2023-05-10T02:30:47;101418.80;;;6.20
69435;BMP180;56625;54.322;18.582;2023-05-10T02:33:17;101414.00;;;6.20
69435;BMP180;56625;54.322;18.582;2023-05-10T02:35:46;101412.20;;;6.16
69435;BMP180;56625;54.322;18.582;2023-05-10T02:38:17;101418.80;;;6.10
69435;BMP180;56625;54.322;18.582;2023-05-10T02:40:47;101413.40;;;6.10
69435;BMP180;56625;54.322;18.582;2023-05-10T02:43:17;101413.00;;;6.10
69435;BMP180;56625;54.322;18.582;2023-05-10T02:45:47;101408.40;;;6.04
69435;BMP180;56625;54.322;18.582;2023-05-10T02:48:16;101410.60;;;6.02
69435;BMP180;56625;54.322;18.582;2023-05-10T02:50:46;101410.40;;;6.00
69435;BMP180;56625;54.322;18.582;2023-05-10T02:53:29;101414.00;;;6.00
69435;BMP180;56625;54.322;18.582;2023-05-10T02:56:05;101412.80;;;6.00
69435;BMP180;56625;54.322;18.582;2023-05-10T02:58:34;101412.00;;;5.92
69435;BMP180;56625;54.322;18.582;2023-05-10T03:01:03;101413.20;;;5.90
69435;BMP180;56625;54.322;18.582;2023-05-10T03:03:31;101412.60;;;5.88
69435;BMP180;56625;54.322;18.582;2023-05-10T03:05:59;101417.00;;;5.80
69435;BMP180;56625;54.322;18.582;2023-05-10T03:08:28;101417.40;;;5.80
69435;BMP180;56625;54.322;18.582;2023-05-10T03:16:46;101414.80;;;5.70
69435;BMP180;56625;54.322;18.582;2023-05-10T03:19:32;101420.00;;;5.70
69435;BMP180;56625;54.322;18.582;2023-05-10T03:22:10;101418.80;;;5.70
69435;BMP180;56625;54.322;18.582;2023-05-10T03:24:41;101419.60;;;5.70
69435;BMP180;56625;54.322;18.582;2023-05-10T03:27:10;101418.00;;;5.70
69435;BMP180;56625;54.322;18.582;2023-05-10T03:29:39;101417.60;;;5.70
69435;BMP180;56625;54.322;18.582;2023-05-10T03:32:07;101417.20;;;5.70
69435;BMP180;56625;54.322;18.582;2023-05-10T03:34:42;101412.20;;;5.70
69435;BMP180;56625;54.322;18.582;2023-05-10T03:37:11;101413.80;;;5.84
69435;BMP180;56625;54.322;18.582;2023-05-10T03:39:39;101409.40;;;6.10
69435;BMP180;56625;54.322;18.582;2023-05-10T03:42:06;101415.00;;;6.36
69435;BMP180;56625;54.322;18.582;2023-05-10T03:44:34;101409.40;;;6.78
69435;BMP180;56625;54.322;18.582;2023-05-10T03:47:02;101407.20;;;7.30
69435;BMP180;56625;54.322;18.582;2023-05-10T03:49:30;101402.40;;;7.88
69435;BMP180;56625;54.322;18.582;2023-05-10T03:51:58;101399.00;;;8.44
69435;BMP180;56625;54.322;18.582;2023-05-10T03:54:26;101396.00;;;8.94
69435;BMP180;56625;54.322;18.582;2023-05-10T03:56:53;101390.80;;;9.56
69435;BMP180;56625;54.322;18.582;2023-05-10T03:59:21;101392.80;;;10.14
69435;BMP180;56625;54.322;18.582;2023-05-10T04:01:49;101385.20;;;10.60
69435;BMP180;56625;54.322;18.582;2023-05-10T04:04:17;101381.20;;;11.10
69435;BMP180;56625;54.322;18.582;2023-05-10T04:06:46;101375.80;;;11.50
69435;BMP180;56625;54.322;18.582;2023-05-10T04:09:14;101374.60;;;11.88
69435;BMP180;56625;54.322;18.582;2023-05-10T04:11:43;101369.40;;;12.12
69435;BMP180;56625;54.322;18.582;2023-05-10T04:14:10;101369.20;;;12.40
69435;BMP180;56625;54.322;18.582;2023-05-10T04:16:38;101364.60;;;12.58
69435;BMP180;56625;54.322;18.582;2023-05-10T04:19:06;101366.40;;;12.78
69435;BMP180;56625;54.322;18.582;2023-05-10T04:21:36;101361.00;;;12.94
69435;BMP180;56625;54.322;18.582;2023-05-10T04:24:04;101361.40;;;13.10
69435;BMP180;56625;54.322;18.582;2023-05-10T04:26:32;101359.80;;;13.20
69435;BMP180;56625;54.322;18.582;2023-05-10T04:28:59;101356.60;;;13.34
69435;BMP180;56625;54.322;18.582;2023-05-10T04:31:27;101357.40;;;13.42
69435;BMP180;56625;54.322;18.582;2023-05-10T04:33:55;101362.80;;;13.20
69435;BMP180;56625;54.322;18.582;2023-05-10T04:36:23;101360.00;;;13.00
69435;BMP180;56625;54.322;18.582;2023-05-10T04:38:52;101359.40;;;12.90
69435;BMP180;56625;54.322;18.582;2023-05-10T04:41:20;101361.60;;;12.88
69435;BMP180;56625;54.322;18.582;2023-05-10T04:43:48;101362.20;;;12.84
69435;BMP180;56625;54.322;18.582;2023-05-10T04:46:17;101359.20;;;12.72
69435;BMP180;56625;54.322;18.582;2023-05-10T04:48:45;101362.00;;;12.60
69435;BMP180;56625;54.322;18.582;2023-05-10T04:51:13;101359.20;;;12.56
69435;BMP180;56625;54.322;18.582;2023-05-10T04:53:41;101362.80;;;12.40
69435;BMP180;56625;54.322;18.582;2023-05-10T04:56:17;101360.80;;;12.30
69435;BMP180;56625;54.322;18.582;2023-05-10T04:58:45;101364.00;;;12.30
69435;BMP180;56625;54.322;18.582;2023-05-10T05:01:13;101371.20;;;12.30
69435;BMP180;56625;54.322;18.582;2023-05-10T05:03:41;101370.20;;;12.30
69435;BMP180;56625;54.322;18.582;2023-05-10T05:06:10;101366.00;;;12.40
69435;BMP180;56625;54.322;18.582;2023-05-10T05:08:38;101364.20;;;12.32
69435;BMP180;56625;54.322;18.582;2023-05-10T05:11:06;101367.60;;;12.30
69435;BMP180;56625;54.322;18.582;2023-05-10T05:13:34;101364.80;;;12.30
69435;BMP180;56625;54.322;18.582;2023-05-10T05:16:02;101365.60;;;12.30
69435;BMP180;56625;54.322;18.582;2023-05-10T05:18:30;101371.20;;;12.20
69435;BMP180;56625;54.322;18.582;2023-05-10T05:20:58;101367.00;;;12.28
69435;BMP180;56625;54.322;18.582;2023-05-10T05:23:26;101363.60;;;12.30
69435;BMP180;56625;54.322;18.582;2023-05-10T05:25:54;101362.00;;;12.42
69435;BMP180;56625;54.322;18.582;2023-05-10T05:28:22;101361.80;;;12.40
69435;BMP180;56625;54.322;18.582;2023-05-10T05:30:50;101365.20;;;12.32
69435;BMP180;56625;54.322;18.582;2023-05-10T05:33:18;101363.40;;;12.48
69435;BMP180;56625;54.322;18.582;2023-05-10T05:35:46;101363.60;;;12.50
69435;BMP180;56625;54.322;18.582;2023-05-10T05:38:18;101368.60;;;12.46
69435;BMP180;56625;54.322;18.582;2023-05-10T05:40:46;101365.60;;;12.40
69435;BMP180;56625;54.322;18.582;2023-05-10T05:43:14;101360.80;;;12.30
69435;BMP180;56625;54.322;18.582;2023-05-10T05:45:42;101363.60;;;12.30
69435;BMP180;56625;54.322;18.582;2023-05-10T05:48:10;101359.20;;;12.20
69435;BMP180;56625;54.322;18.582;2023-05-10T05:50:38;101357.00;;;12.20
69435;BMP180;56625;54.322;18.582;2023-05-10T05:53:05;101362.60;;;12.30
69435;BMP180;56625;54.322;18.582;2023-05-10T05:55:33;101360.80;;;12.30
69435;BMP180;56625;54.322;18.582;2023-05-10T05:58:02;101361.00;;;12.38
69435;BMP180;56625;54.322;18.582;2023-05-10T06:00:30;101355.80;;;12.36
69435;BMP180;56625;54.322;18.582;2023-05-10T06:02:58;101356.00;;;12.40
69435;BMP180;56625;54.322;18.582;2023-05-10T06:05:26;101354.20;;;12.50
69435;BMP180;56625;54.322;18.582;2023-05-10T06:07:53;101351.60;;;12.60
69435;BMP180;56625;54.322;18.582;2023-05-10T06:10:22;101349.40;;;12.64
69435;BMP180;56625;54.322;18.582;2023-05-10T06:12:50;101356.60;;;12.76
69435;BMP180;56625;54.322;18.582;2023-05-10T06:15:18;101349.80;;;12.68
69435;BMP180;56625;54.322;18.582;2023-05-10T06:17:46;101358.60;;;12.70
69435;BMP180;56625;54.322;18.582;2023-05-10T06:20:16;101360.20;;;12.76
69435;BMP180;56625;54.322;18.582;2023-05-10T06:22:44;101356.60;;;12.92
69435;BMP180;56625;54.322;18.582;2023-05-10T06:25:12;101353.00;;;13.00
69435;BMP180;56625;54.322;18.582;2023-05-10T06:27:40;101355.40;;;13.10
69435;BMP180;56625;54.322;18.582;2023-05-10T06:30:09;101352.00;;;13.20
69435;BMP180;56625;54.322;18.582;2023-05-10T06:32:40;101343.80;;;13.30
69435;BMP180;56625;54.322;18.582;2023-05-10T06:35:09;101344.60;;;13.46
69435;BMP180;56625;54.322;18.582;2023-05-10T06:37:37;101336.60;;;13.50
69435;BMP180;56625;54.322;18.582;2023-05-10T06:40:06;101345.20;;;13.70
69435;BMP180;56625;54.322;18.582;2023-05-10T06:42:34;101340.60;;;13.80
69435;BMP180;56625;54.322;18.582;2023-05-10T06:45:02;101343.80;;;13.80
69435;BMP180;56625;54.322;18.582;2023-05-10T06:47:30;101337.40;;;13.90
69435;BMP180;56625;54.322;18.582;2023-05-10T06:49:59;101337.60;;;13.96
69435;BMP180;56625;54.322;18.582;2023-05-10T06:52:27;101342.00;;;14.00
69435;BMP180;56625;54.322;18.582;2023-05-10T06:54:55;101337.20;;;14.10
69435;BMP180;56625;54.322;18.582;2023-05-10T06:57:23;101325.80;;;14.22
69435;BMP180;56625;54.322;18.582;2023-05-10T06:59:58;101333.80;;;14.48
69435;BMP180;56625;54.322;18.582;2023-05-10T07:02:26;101330.40;;;14.68
69435;BMP180;56625;54.322;18.582;2023-05-10T07:04:55;101331.20;;;14.80
69435;BMP180;56625;54.322;18.582;2023-05-10T07:07:24;101334.60;;;14.84
69435;BMP180;56625;54.322;18.582;2023-05-10T07:09:52;101331.40;;;15.00
69435;BMP180;56625;54.322;18.582;2023-05-10T07:12:20;101325.00;;;15.16
69435;BMP180;56625;54.322;18.582;2023-05-10T07:14:47;101324.60;;;15.16
69435;BMP180;56625;54.322;18.582;2023-05-10T07:17:15;101325.00;;;15.20
69435;BMP180;56625;54.322;18.582;2023-05-10T07:19:43;101326.00;;;15.38
69435;BMP180;56625;54.322;18.582;2023-05-10T07:22:11;101325.80;;;15.50
69435;BMP180;56625;54.322;18.582;2023-05-10T07:24:40;101321.20;;;15.60
69435;BMP180;56625;54.322;18.582;2023-05-10T07:27:08;101320.20;;;15.80
69435;BMP180;56625;54.322;18.582;2023-05-10T07:29:36;101319.20;;;15.90
69435;BMP180;56625;54.322;18.582;2023-05-10T07:32:06;101319.00;;;16.00
69435;BMP180;56625;54.322;18.582;2023-05-10T07:34:34;101315.20;;;16.06
69435;BMP180;56625;54.322;18.582;2023-05-10T07:37:01;101314.60;;;16.14
69435;BMP180;56625;54.322;18.582;2023-05-10T07:39:29;101311.60;;;16.20
69435;BMP180;56625;54.322;18.582;2023-05-10T07:41:57;101308.40;;;16.30
69435;BMP180;56625;54.322;18.582;2023-05-10T07:44:25;101305.40;;;16.48
69435;BMP180;56625;54.322;18.582;2023-05-10T07:46:53;101305.60;;;16.62
69435;BMP180;56625;54.322;18.582;2023-05-10T07:49:21;101302.40;;;16.80
69435;BMP180;56625;54.322;18.582;2023-05-10T07:51:51;101306.60;;;16.80
69435;BMP180;56625;54.322;18.582;2023-05-10T07:54:19;101297.80;;;16.84
69435;BMP180;56625;54.322;18.582;2023-05-10T07:56:47;101304.80;;;16.98
69435;BMP180;56625;54.322;18.582;2023-05-10T07:59:17;101309.00;;;17.10
69435;BMP180;56625;54.322;18.582;2023-05-10T08:01:45;101305.80;;;17.16
69435;BMP180;56625;54.322;18.582;2023-05-10T08:04:12;101306.40;;;17.12
69435;BMP180;56625;54.322;18.582;2023-05-10T08:06:40;101308.80;;;17.20
69435;BMP180;56625;54.322;18.582;2023-05-10T08:09:09;101301.20;;;17.12
69435;BMP180;56625;54.322;18.582;2023-05-10T08:11:37;101294.60;;;17.14
69435;BMP180;56625;54.322;18.582;2023-05-10T08:14:05;101294.40;;;17.20
69435;BMP180;56625;54.322;18.582;2023-05-10T08:16:32;101287.60;;;17.30
69435;BMP180;56625;54.322;18.582;2023-05-10T08:19:00;101297.20;;;17.40
69435;BMP180;56625;54.322;18.582;2023-05-10T08:21:29;101292.60;;;17.60
69435;BMP180;56625;54.322;18.582;2023-05-10T08:23:57;101283.00;;;17.70
69435;BMP180;56625;54.322;18.582;2023-05-10T08:26:25;101290.40;;;17.82
69435;BMP180;56625;54.322;18.582;2023-05-10T08:28:53;101284.00;;;17.94
69435;BMP180;56625;54.322;18.582;2023-05-10T08:31:21;101284.60;;;18.02
69435;BMP180;56625;54.322;18.582;2023-05-10T08:33:49;101285.40;;;18.10
69435;BMP180;56625;54.322;18.582;2023-05-10T08:36:19;101283.20;;;18.00
69435;BMP180;56625;54.322;18.582;2023-05-10T08:38:52;101277.00;;;17.94
69435;BMP180;56625;54.322;18.582;2023-05-10T08:41:21;101280.80;;;18.00
69435;BMP180;56625;54.322;18.582;2023-05-10T08:43:50;101275.00;;;18.10
69435;BMP180;56625;54.322;18.582;2023-05-10T08:46:21;101269.80;;;18.24
69435;BMP180;56625;54.322;18.582;2023-05-10T08:48:51;101277.40;;;18.30
69435;BMP180;56625;54.322;18.582;2023-05-10T08:51:24;101268.60;;;18.34
69435;BMP180;56625;54.322;18.582;2023-05-10T08:53:54;101266.40;;;18.32
69435;BMP180;56625;54.322;18.582;2023-05-10T08:56:23;101286.20;;;18.30
69435;BMP180;56625;54.322;18.582;2023-05-10T08:58:51;101270.80;;;18.50
69435;BMP180;56625;54.322;18.582;2023-05-10T09:01:20;101269.80;;;18.60
69435;BMP180;56625;54.322;18.582;2023-05-10T09:03:50;101274.00;;;18.60
69435;BMP180;56625;54.322;18.582;2023-05-10T09:06:18;101257.80;;;18.60
69435;BMP180;56625;54.322;18.582;2023-05-10T09:08:46;101253.40;;;18.60
69435;BMP180;56625;54.322;18.582;2023-05-10T09:11:16;101262.80;;;18.40
69435;BMP180;56625;54.322;18.582;2023-05-10T09:13:46;101266.60;;;18.30
69435;BMP180;56625;54.322;18.582;2023-05-10T09:16:15;101274.60;;;18.40
69435;BMP180;56625;54.322;18.582;2023-05-10T09:18:49;101261.40;;;18.50
69435;BMP180;56625;54.322;18.582;2023-05-10T09:21:19;101263.20;;;18.60
69435;BMP180;56625;54.322;18.582;2023-05-10T09:23:48;101252.80;;;18.70
69435;BMP180;56625;54.322;18.582;2023-05-10T09:26:23;101254.40;;;18.60
69435;BMP180;56625;54.322;18.582;2023-05-10T09:28:56;101268.00;;;18.64
69435;BMP180;56625;54.322;18.582;2023-05-10T09:31:45;101261.20;;;18.70
69435;BMP180;56625;54.322;18.582;2023-05-10T09:34:20;101265.60;;;18.70
69435;BMP180;56625;54.322;18.582;2023-05-10T09:36:55;101258.80;;;18.60
69435;BMP180;56625;54.322;18.582;2023-05-10T09:39:35;101262.00;;;18.60
69435;BMP180;56625;54.322;18.582;2023-05-10T09:42:08;101254.20;;;18.68
69435;BMP180;56625;54.322;18.582;2023-05-10T09:44:36;101246.20;;;18.70
69435;BMP180;56625;54.322;18.582;2023-05-10T09:47:05;101253.00;;;18.60
69435;BMP180;56625;54.322;18.582;2023-05-10T09:49:34;101273.80;;;18.62
69435;BMP180;56625;54.322;18.582;2023-05-10T09:52:07;101263.60;;;18.80
69435;BMP180;56625;54.322;18.582;2023-05-10T09:54:35;101256.20;;;18.80
69435;BMP180;56625;54.322;18.582;2023-05-10T09:57:03;101261.40;;;18.80
69435;BMP180;56625;54.322;18.582;2023-05-10T09:59:32;101260.40;;;19.00
69435;BMP180;56625;54.322;18.582;2023-05-10T10:02:02;101259.20;;;19.06
69435;BMP180;56625;54.322;18.582;2023-05-10T10:04:39;101254.80;;;19.02
69435;BMP180;56625;54.322;18.582;2023-05-10T10:07:07;101248.40;;;18.98
69435;BMP180;56625;54.322;18.582;2023-05-10T10:09:35;101246.20;;;19.10
69435;BMP180;56625;54.322;18.582;2023-05-10T10:12:03;101248.60;;;19.30
69435;BMP180;56625;54.322;18.582;2023-05-10T10:14:33;101237.80;;;19.30
69435;BMP180;56625;54.322;18.582;2023-05-10T10:17:01;101243.00;;;19.40
69435;BMP180;56625;54.322;18.582;2023-05-10T10:19:35;101242.80;;;19.40
69435;BMP180;56625;54.322;18.582;2023-05-10T10:22:05;101234.20;;;19.66
69435;BMP180;56625;54.322;18.582;2023-05-10T10:24:33;101234.80;;;19.80
69435;BMP180;56625;54.322;18.582;2023-05-10T10:27:19;101226.80;;;19.90
69435;BMP180;56625;54.322;18.582;2023-05-10T10:30:16;101215.40;;;19.90
69435;BMP180;56625;54.322;18.582;2023-05-10T10:33:30;101231.00;;;19.80
69435;BMP180;56625;54.322;18.582;2023-05-10T10:36:03;101229.00;;;19.80
69435;BMP180;56625;54.322;18.582;2023-05-10T10:41:34;101228.80;;;19.60
69435;BMP180;56625;54.322;18.582;2023-05-10T10:52:27;101221.20;;;19.90
69435;BMP180;56625;54.322;18.582;2023-05-10T10:55:09;101214.80;;;19.90
69435;BMP180;56625;54.322;18.582;2023-05-10T11:02:52;101194.60;;;20.20
69435;BMP180;56625;54.322;18.582;2023-05-10T11:05:37;101194.00;;;20.10
69435;BMP180;56625;54.322;18.582;2023-05-10T11:08:32;101197.00;;;20.28
69435;BMP180;56625;54.322;18.582;2023-05-10T11:11:06;101200.80;;;20.40
69435;BMP180;56625;54.322;18.582;2023-05-10T11:13:41;101196.00;;;20.60
69435;BMP180;56625;54.322;18.582;2023-05-10T11:16:15;101197.00;;;20.60
69435;BMP180;56625;54.322;18.582;2023-05-10T11:19:00;101185.80;;;20.70
69435;BMP180;56625;54.322;18.582;2023-05-10T11:21:31;101193.60;;;20.50
69435;BMP180;56625;54.322;18.582;2023-05-10T11:24:01;101199.00;;;20.48
69435;BMP180;56625;54.322;18.582;2023-05-10T11:26:35;101195.20;;;20.64
69435;BMP180;56625;54.322;18.582;2023-05-10T11:29:03;101170.80;;;20.70
69435;BMP180;56625;54.322;18.582;2023-05-10T11:31:32;101184.20;;;20.60
69435;BMP180;56625;54.322;18.582;2023-05-10T11:34:01;101185.80;;;20.60
69435;BMP180;56625;54.322;18.582;2023-05-10T11:36:36;101193.00;;;20.70
69435;BMP180;56625;54.322;18.582;2023-05-10T11:39:05;101187.40;;;20.54
69435;BMP180;56625;54.322;18.582;2023-05-10T11:41:33;101192.20;;;20.40
69435;BMP180;56625;54.322;18.582;2023-05-10T11:44:01;101196.40;;;20.50
69435;BMP180;56625;54.322;18.582;2023-05-10T11:46:29;101189.20;;;20.60
69435;BMP180;56625;54.322;18.582;2023-05-10T11:49:00;101190.60;;;20.60
69435;BMP180;56625;54.322;18.582;2023-05-10T11:51:34;101188.40;;;20.70
69435;BMP180;56625;54.322;18.582;2023-05-10T11:54:09;101183.60;;;20.70
69435;BMP180;56625;54.322;18.582;2023-05-10T11:56:39;101188.60;;;20.60
69435;BMP180;56625;54.322;18.582;2023-05-10T11:59:07;101188.00;;;20.70
69435;BMP180;56625;54.322;18.582;2023-05-10T12:01:36;101183.40;;;20.60
69435;BMP180;56625;54.322;18.582;2023-05-10T12:04:04;101184.60;;;20.54
69435;BMP180;56625;54.322;18.582;2023-05-10T12:06:40;101183.80;;;20.50
69435;BMP180;56625;54.322;18.582;2023-05-10T12:09:08;101181.40;;;20.58
69435;BMP180;56625;54.322;18.582;2023-05-10T12:11:39;101185.80;;;20.50
69435;BMP180;56625;54.322;18.582;2023-05-10T12:14:11;101170.20;;;20.38
69435;BMP180;56625;54.322;18.582;2023-05-10T12:16:39;101172.00;;;20.28
69435;BMP180;56625;54.322;18.582;2023-05-10T12:19:07;101185.20;;;20.20
69435;BMP180;56625;54.322;18.582;2023-05-10T12:21:35;101186.00;;;20.34
69435;BMP180;56625;54.322;18.582;2023-05-10T12:24:04;101173.60;;;20.40
69435;BMP180;56625;54.322;18.582;2023-05-10T12:26:34;101174.40;;;20.64
69435;BMP180;56625;54.322;18.582;2023-05-10T12:29:18;101165.00;;;20.60
69435;BMP180;56625;54.322;18.582;2023-05-10T12:31:57;101168.60;;;20.70
69435;BMP180;56625;54.322;18.582;2023-05-10T12:36:58;101170.00;;;20.60
69435;BMP180;56625;54.322;18.582;2023-05-10T12:39:26;101170.40;;;20.50
69435;BMP180;56625;54.322;18.582;2023-05-10T12:42:04;101166.00;;;20.50
69435;BMP180;56625;54.322;18.582;2023-05-10T12:44:32;101173.40;;;20.68
69435;BMP180;56625;54.322;18.582;2023-05-10T12:47:00;101179.00;;;20.60
69435;BMP180;56625;54.322;18.582;2023-05-10T12:49:28;101177.40;;;20.60
69435;BMP180;56625;54.322;18.582;2023-05-10T12:51:56;101171.80;;;20.48
69435;BMP180;56625;54.322;18.582;2023-05-10T12:54:24;101168.40;;;20.56
69435;BMP180;56625;54.322;18.582;2023-05-10T12:56:52;101170.00;;;20.70
69435;BMP180;56625;54.322;18.582;2023-05-10T12:59:20;101169.20;;;20.70
69435;BMP180;56625;54.322;18.582;2023-05-10T13:01:48;101167.40;;;20.78
69435;BMP180;56625;54.322;18.582;2023-05-10T13:04:15;101158.80;;;20.70
69435;BMP180;56625;54.322;18.582;2023-05-10T13:06:44;101156.40;;;20.70
69435;BMP180;56625;54.322;18.582;2023-05-10T13:09:12;101168.00;;;20.60
69435;BMP180;56625;54.322;18.582;2023-05-10T13:11:39;101163.40;;;20.56
69435;BMP180;56625;54.322;18.582;2023-05-10T13:14:07;101160.40;;;20.60
69435;BMP180;56625;54.322;18.582;2023-05-10T13:16:35;101157.60;;;20.70
69435;BMP180;56625;54.322;18.582;2023-05-10T13:19:03;101148.80;;;20.70
69435;BMP180;56625;54.322;18.582;2023-05-10T13:21:31;101147.60;;;20.60
69435;BMP180;56625;54.322;18.582;2023-05-10T13:23:59;101148.20;;;20.50
69435;BMP180;56625;54.322;18.582;2023-05-10T13:26:28;101150.00;;;20.50
69435;BMP180;56625;54.322;18.582;2023-05-10T13:28:57;101152.60;;;20.60
69435;BMP180;56625;54.322;18.582;2023-05-10T13:31:25;101142.00;;;20.60
69435;BMP180;56625;54.322;18.582;2023-05-10T13:33:53;101155.80;;;20.50
69435;BMP180;56625;54.322;18.582;2023-05-10T13:36:20;101152.60;;;20.50
69435;BMP180;56625;54.322;18.582;2023-05-10T13:38:48;101152.60;;;20.60
69435;BMP180;56625;54.322;18.582;2023-05-10T13:41:16;101153.20;;;20.60
69435;BMP180;56625;54.322;18.582;2023-05-10T13:43:44;101155.40;;;20.52
69435;BMP180;56625;54.322;18.582;2023-05-10T13:46:12;101152.20;;;20.50
69435;BMP180;56625;54.322;18.582;2023-05-10T13:48:40;101153.40;;;20.60
69435;BMP180;56625;54.322;18.582;2023-05-10T13:51:08;101147.60;;;20.56
69435;BMP180;56625;54.322;18.582;2023-05-10T13:53:37;101149.60;;;20.48
69435;BMP180;56625;54.322;18.582;2023-05-10T14:00:05;101146.60;;;20.48
69435;BMP180;56625;54.322;18.582;2023-05-10T14:02:34;101143.60;;;20.40
69435;BMP180;56625;54.322;18.582;2023-05-10T14:05:04;101136.20;;;20.40
69435;BMP180;56625;54.322;18.582;2023-05-10T14:07:32;101125.80;;;20.50
69435;BMP180;56625;54.322;18.582;2023-05-10T14:10:01;101124.80;;;20.40
69435;BMP180;56625;54.322;18.582;2023-05-10T14:12:30;101137.00;;;20.38
69435;BMP180;56625;54.322;18.582;2023-05-10T14:14:58;101130.80;;;20.40
69435;BMP180;56625;54.322;18.582;2023-05-10T14:17:26;101133.20;;;20.40
69435;BMP180;56625;54.322;18.582;2023-05-10T14:19:54;101128.80;;;20.48
69435;BMP180;56625;54.322;18.582;2023-05-10T14:22:22;101124.00;;;20.50
69435;BMP180;56625;54.322;18.582;2023-05-10T14:24:50;101115.60;;;20.42
69435;BMP180;56625;54.322;18.582;2023-05-10T14:27:18;101123.60;;;20.50
69435;BMP180;56625;54.322;18.582;2023-05-10T14:29:47;101124.60;;;20.60
69435;BMP180;56625;54.322;18.582;2023-05-10T14:32:15;101122.20;;;20.60
69435;BMP180;56625;54.322;18.582;2023-05-10T14:34:43;101122.80;;;20.60
69435;BMP180;56625;54.322;18.582;2023-05-10T14:37:12;101115.20;;;20.50